Time;durP1;ratioP1;P1;durP2;ratioP2;P2;SDS_P1;SDS_P2;PMS_P1;PMS_P2;Temp;Humidity;BMP_temperature;BMP_pressure;BME280_temperature;BME280_humidity;BME280_pressure;Samples;Min_cycle;Max_cycle;Signal;HPM_P1;HPM_P2
2022/03/15 00:01:21;;;;;;;;;;;3.80;99.90;;;;;;5053570;28;19982;-81
2022/03/15 00:03:48;;;;;;;;;;;3.70;99.90;;;;;;5051751;28;19975;-81
2022/03/15 00:06:14;;;;;;;;;;;3.80;99.90;;;;;;5050978;28;19959;-81
2022/03/15 00:08:40;;;;;;;;;;;3.80;99.90;;;;;;5052767;28;20412;-80
2022/03/15 00:11:06;;;;;;;;;;;3.80;99.90;;;;;;5053180;28;20398;-80
2022/03/15 00:13:34;;;;;;;;;;;3.80;99.90;;;;;;5053345;28;19921;-80
2022/03/15 00:16:02;;;;;;;;;;;3.80;99.90;;;;;;5052551;28;19972;-79
2022/03/15 00:18:30;;;;;;;;;;;3.80;99.90;;;;;;5050118;28;19924;-80
2022/03/15 00:20:56;;;;;;;;;;;3.80;99.90;;;;;;5052146;28;19928;-80
2022/03/15 00:23:24;;;;;;;;;;;3.90;99.90;;;;;;5053132;28;19925;-79
2022/03/15 00:25:51;;;;;;;;;;;3.80;99.90;;;;;;5053116;28;20413;-80
2022/03/15 00:28:16;;;;;;;;;;;3.80;99.90;;;;;;5052850;28;19920;-80
2022/03/15 00:30:42;;;;;;;;;;;3.80;99.90;;;;;;5052675;28;20287;-80
2022/03/15 00:33:08;;;;;;;;;;;3.80;99.90;;;;;;5051206;28;20028;-79
2022/03/15 00:35:33;;;;;;;;;;;3.70;99.90;;;;;;5052678;28;20444;-80
2022/03/15 00:37:59;;;;;;;;;;;3.70;99.90;;;;;;5051130;28;19928;-79
2022/03/15 00:40:25;;;;;;;;;;;3.70;99.90;;;;;;5052760;28;19982;-80
2022/03/15 00:42:52;;;;;;;;;;;3.70;99.90;;;;;;5051563;28;20434;-80
2022/03/15 00:45:18;;;;;;;;;;;3.70;99.90;;;;;;5052170;28;19924;-80
2022/03/15 00:47:44;;;;;;;;;;;3.70;99.90;;;;;;5052783;28;19990;-81
2022/03/15 00:50:10;;;;;;;;;;;3.70;99.90;;;;;;5050958;28;20380;-80
2022/03/15 00:52:36;;;;;;;;;;;3.60;99.90;;;;;;5052450;28;19931;-80
2022/03/15 00:55:03;;;;;;;;;;;3.60;99.90;;;;;;5052906;28;19920;-80
2022/03/15 00:57:28;;;;;;;;;;;3.60;99.90;;;;;;5051357;28;19925;-80
2022/03/15 00:59:55;;;;;;;;;;;3.60;99.90;;;;;;5052354;28;19917;-80
2022/03/15 01:02:20;;;;;;;;;;;3.80;99.90;;;;;;5049616;28;20353;-80
2022/03/15 01:04:46;;;;;;;;;;;3.90;99.90;;;;;;5053905;28;19952;-80
2022/03/15 01:07:12;;;;;;;;;;;3.90;99.90;;;;;;5055848;28;19921;-80
2022/03/15 01:09:38;;;;;;;;;;;4.00;99.90;;;;;;5056886;28;19921;-80
2022/03/15 01:12:04;;;;;;;;;;;3.80;99.90;;;;;;5054793;28;20456;-80
2022/03/15 01:14:29;;;;;;;;;;;3.70;99.90;;;;;;5054967;28;19925;-81
2022/03/15 01:16:55;;;;;;;;;;;3.70;99.90;;;;;;5056667;28;19927;-80
2022/03/15 01:19:24;;;;;;;;;;;3.70;99.90;;;;;;5055843;28;19924;-80
2022/03/15 01:21:53;;;;;;;;;;;3.70;99.90;;;;;;5055068;28;19921;-80
2022/03/15 01:24:19;;;;;;;;;;;3.70;99.90;;;;;;5040820;28;20012;-80
2022/03/15 01:26:44;;;;;;;;;;;3.70;99.90;;;;;;5035997;28;20063;-80
2022/03/15 01:29:10;;;;;;;;;;;3.80;99.90;;;;;;5036283;28;19928;-80
2022/03/15 01:31:35;;;;;;;;;;;3.90;99.90;;;;;;5036436;28;19928;-80
2022/03/15 01:34:01;;;;;;;;;;;4.00;99.90;;;;;;5035818;28;20027;-80
2022/03/15 01:36:27;;;;;;;;;;;4.00;99.90;;;;;;5035891;28;19921;-80
2022/03/15 01:38:53;;;;;;;;;;;4.10;99.90;;;;;;5037301;28;19917;-81
2022/03/15 01:41:21;;;;;;;;;;;4.20;99.90;;;;;;5034469;28;19931;-80
2022/03/15 01:43:50;;;;;;;;;;;4.30;99.90;;;;;;5036542;28;19921;-80
2022/03/15 01:46:16;;;;;;;;;;;4.30;99.90;;;;;;5035872;28;19921;-80
2022/03/15 01:48:42;;;;;;;;;;;4.30;99.90;;;;;;5034280;28;20367;-79
2022/03/15 01:51:09;;;;;;;;;;;4.30;99.90;;;;;;5036284;28;19923;-79
2022/03/15 01:53:38;;;;;;;;;;;4.40;99.90;;;;;;5034862;28;20011;-80
2022/03/15 01:56:05;;;;;;;;;;;4.50;99.90;;;;;;5034980;28;19920;-80
2022/03/15 01:58:30;;;;;;;;;;;4.50;99.90;;;;;;5036222;28;19928;-80
2022/03/15 02:00:56;;;;;;;;;;;4.60;99.90;;;;;;5036046;28;20277;-80
2022/03/15 02:03:21;;;;;;;;;;;4.70;99.90;;;;;;5035290;28;20012;-79
2022/03/15 02:05:47;;;;;;;;;;;4.80;99.90;;;;;;5037980;28;20368;-79
2022/03/15 02:08:14;;;;;;;;;;;4.70;99.90;;;;;;5054584;28;19928;-80
2022/03/15 02:10:39;;;;;;;;;;;4.80;99.90;;;;;;5056075;28;19920;-79
2022/03/15 02:13:08;;;;;;;;;;;4.80;99.90;;;;;;5055133;28;20364;-80
2022/03/15 02:15:34;;;;;;;;;;;4.70;99.90;;;;;;5054562;28;20368;-79
2022/03/15 02:18:03;;;;;;;;;;;4.80;99.90;;;;;;5051618;28;19943;-80
2022/03/15 02:20:28;;;;;;;;;;;4.90;99.90;;;;;;5055181;28;19932;-80
2022/03/15 02:22:54;;;;;;;;;;;4.90;99.90;;;;;;5054990;28;19925;-80
2022/03/15 02:25:19;;;;;;;;;;;4.90;99.90;;;;;;5055082;28;19923;-80
2022/03/15 02:27:45;;;;;;;;;;;5.00;99.90;;;;;;5053475;28;19921;-80
2022/03/15 02:30:11;;;;;;;;;;;5.00;99.90;;;;;;5052804;28;20249;-80
2022/03/15 02:32:38;;;;;;;;;;;5.10;99.90;;;;;;5054353;28;19964;-79
2022/03/15 02:35:04;;;;;;;;;;;5.10;99.90;;;;;;5053545;28;20015;-80
2022/03/15 02:37:29;;;;;;;;;;;5.10;99.90;;;;;;5054823;28;19924;-80
2022/03/15 02:39:55;;;;;;;;;;;5.20;99.90;;;;;;5054211;28;19921;-80
2022/03/15 02:42:20;;;;;;;;;;;5.20;99.90;;;;;;5053081;28;19920;-80
2022/03/15 02:44:46;;;;;;;;;;;5.20;99.90;;;;;;5054390;28;19974;-80
2022/03/15 02:47:11;;;;;;;;;;;5.30;99.90;;;;;;5054668;28;20375;-80
2022/03/15 02:49:37;;;;;;;;;;;5.30;99.90;;;;;;5055035;28;19921;-80
2022/03/15 02:52:03;;;;;;;;;;;5.30;99.90;;;;;;5053237;28;19925;-80
2022/03/15 02:54:28;;;;;;;;;;;5.30;99.90;;;;;;5054513;28;20012;-80
2022/03/15 02:56:54;;;;;;;;;;;5.30;99.90;;;;;;5053261;28;19975;-79
2022/03/15 02:59:20;;;;;;;;;;;6.70;99.90;;;;;;5053766;28;19917;-79
2022/03/15 03:01:46;;;;;;;;;;;5.30;99.90;;;;;;5054609;28;19920;-80
2022/03/15 03:04:12;;;;;;;;;;;5.30;99.90;;;;;;5054457;28;20395;-79
2022/03/15 03:06:37;;;;;;;;;;;5.30;99.90;;;;;;5053858;28;19921;-80
2022/03/15 03:09:03;;;;;;;;;;;5.30;99.90;;;;;;5087010;28;20272;-80
2022/03/15 03:11:29;;;;;;;;;;;5.30;99.90;;;;;;5053943;28;19924;-80
2022/03/15 03:13:57;;;;;;;;;;;5.30;99.90;;;;;;5052564;28;20011;-80
2022/03/15 03:16:23;;;;;;;;;;;5.30;99.90;;;;;;5054022;28;19928;-80
2022/03/15 03:18:48;;;;;;;;;;;5.30;99.90;;;;;;5054082;28;19924;-80
2022/03/15 03:21:14;;;;;;;;;;;5.30;99.90;;;;;;5052688;28;20295;-80
2022/03/15 03:23:39;;;;;;;;;;;5.10;99.90;;;;;;5052687;28;19920;-80
2022/03/15 03:26:05;;;;;;;;;;;5.30;99.90;;;;;;5051924;28;19921;-80
2022/03/15 03:28:36;;;;;;;;;;;5.30;99.90;;;;;;5053975;28;20290;-80
2022/03/15 03:31:03;;;;;;;;;;;5.40;99.90;;;;;;5054361;28;19921;-80
2022/03/15 03:33:29;;;;;;;;;;;5.50;99.90;;;;;;5053845;28;19932;-80
2022/03/15 03:35:55;;;;;;;;;;;5.40;99.90;;;;;;5054152;28;19921;-80
2022/03/15 03:38:20;;;;;;;;;;;5.40;99.90;;;;;;5049714;28;20384;-80
2022/03/15 03:40:46;;;;;;;;;;;5.40;99.90;;;;;;5033609;28;19956;-80
2022/03/15 03:43:11;;;;;;;;;;;5.40;99.90;;;;;;5033516;28;19967;-80
2022/03/15 03:45:38;;;;;;;;;;;5.40;99.90;;;;;;5032803;28;19920;-80
2022/03/15 03:48:04;;;;;;;;;;;5.40;99.90;;;;;;5031966;28;19921;-80
2022/03/15 03:50:34;;;;;;;;;;;5.40;99.90;;;;;;5033856;28;19974;-80
2022/03/15 03:52:59;;;;;;;;;;;6.90;99.90;;;;;;5034982;28;19925;-80
2022/03/15 03:55:25;;;;;;;;;;;5.30;99.90;;;;;;5031589;28;19936;-80
2022/03/15 03:57:51;;;;;;;;;;;5.30;99.90;;;;;;5033375;28;19943;-80
2022/03/15 04:00:19;;;;;;;;;;;5.30;99.90;;;;;;5033753;28;19928;-80
2022/03/15 04:02:44;;;;;;;;;;;5.20;99.90;;;;;;5033028;28;19920;-80
2022/03/15 04:05:10;;;;;;;;;;;5.20;99.90;;;;;;5031935;28;19928;-80
2022/03/15 04:07:37;;;;;;;;;;;5.20;99.90;;;;;;5033219;28;19927;-80
2022/03/15 04:10:05;;;;;;;;;;;5.00;99.90;;;;;;5034307;28;19956;-79
2022/03/15 04:12:31;;;;;;;;;;;5.50;99.90;;;;;;5032066;28;20451;-80
2022/03/15 04:14:58;;;;;;;;;;;5.10;99.90;;;;;;5033165;28;19928;-80
2022/03/15 04:17:23;;;;;;;;;;;5.10;99.90;;;;;;5032991;28;20327;-80
2022/03/15 04:19:49;;;;;;;;;;;5.10;99.90;;;;;;5033613;28;19925;-80
2022/03/15 04:22:14;;;;;;;;;;;5.10;99.90;;;;;;5032572;28;20010;-80
2022/03/15 04:24:40;;;;;;;;;;;5.00;99.90;;;;;;5034124;28;20003;-80
2022/03/15 04:27:05;;;;;;;;;;;5.10;99.90;;;;;;5032912;28;19925;-80
2022/03/15 04:29:31;;;;;;;;;;;5.10;99.90;;;;;;5032877;28;19967;-80
2022/03/15 04:31:56;;;;;;;;;;;5.10;99.90;;;;;;5033207;28;19920;-80
2022/03/15 04:34:22;;;;;;;;;;;5.10;99.90;;;;;;5033640;28;20396;-80
2022/03/15 04:36:47;;;;;;;;;;;5.10;99.90;;;;;;5032473;28;19930;-80
2022/03/15 04:39:13;;;;;;;;;;;5.00;99.90;;;;;;5030963;28;19928;-80
2022/03/15 04:41:39;;;;;;;;;;;5.00;99.90;;;;;;5032723;28;19925;-80
2022/03/15 04:44:06;;;;;;;;;;;5.00;99.90;;;;;;5033045;28;19967;-80
2022/03/15 04:46:32;;;;;;;;;;;5.00;99.90;;;;;;5052856;28;20277;-80
2022/03/15 04:48:57;;;;;;;;;;;5.00;99.90;;;;;;5052926;28;19920;-79
2022/03/15 04:51:24;;;;;;;;;;;5.00;99.90;;;;;;5052043;28;20280;-80
2022/03/15 04:53:50;;;;;;;;;;;5.00;99.90;;;;;;5051648;28;19944;-80
2022/03/15 04:56:15;;;;;;;;;;;5.00;99.90;;;;;;5052314;28;19921;-80
2022/03/15 04:58:41;;;;;;;;;;;5.00;99.90;;;;;;5052297;28;19920;-80
2022/03/15 05:01:07;;;;;;;;;;;5.00;99.90;;;;;;5049566;28;19921;-81
2022/03/15 05:03:35;;;;;;;;;;;5.00;99.90;;;;;;5052647;28;19921;-80
2022/03/15 05:06:01;;;;;;;;;;;5.00;99.90;;;;;;5052111;28;19927;-80
2022/03/15 05:08:26;;;;;;;;;;;5.00;99.90;;;;;;5050755;28;19920;-80
2022/03/15 05:11:07;;;;;;;;;;;5.00;99.90;;;;;;5052690;28;20376;-80
2022/03/15 05:13:40;;;;;;;;;;;5.00;99.90;;;;;;5052611;28;20372;-81
2022/03/15 05:16:09;;;;;;;;;;;5.00;99.90;;;;;;5052238;28;19920;-80
2022/03/15 05:18:35;;;;;;;;;;;5.10;99.90;;;;;;5050608;28;19999;-80
2022/03/15 05:21:01;;;;;;;;;;;5.10;99.90;;;;;;5052719;28;20379;-80
2022/03/15 05:23:27;;;;;;;;;;;5.20;99.90;;;;;;5052342;28;19927;-80
2022/03/15 05:25:53;;;;;;;;;;;5.00;99.90;;;;;;5084651;28;19920;-80
2022/03/15 05:28:18;;;;;;;;;;;5.00;99.90;;;;;;5052091;28;20376;-80
2022/03/15 05:30:44;;;;;;;;;;;5.00;99.90;;;;;;5051615;28;19929;-80
2022/03/15 05:33:09;;;;;;;;;;;5.00;99.90;;;;;;5050054;28;19925;-80
2022/03/15 05:35:35;;;;;;;;;;;4.90;99.90;;;;;;5052214;28;19950;-82
2022/03/15 05:38:01;;;;;;;;;;;4.90;99.90;;;;;;5052568;28;19921;-81
2022/03/15 05:40:26;;;;;;;;;;;4.90;99.90;;;;;;5041300;28;19923;-81
2022/03/15 05:42:52;;;;;;;;;;;4.90;99.90;;;;;;5041213;28;19921;-81
2022/03/15 05:45:17;;;;;;;;;;;4.90;99.90;;;;;;5038162;28;19955;-81
2022/03/15 05:47:43;;;;;;;;;;;4.90;99.90;;;;;;5040449;28;20453;-80
2022/03/15 05:50:08;;;;;;;;;;;5.00;99.90;;;;;;5039689;28;19931;-80
2022/03/15 05:52:34;;;;;;;;;;;5.00;99.90;;;;;;5043664;28;19933;-81
2022/03/15 05:54:59;;;;;;;;;;;5.00;99.90;;;;;;5039029;28;19956;-81
2022/03/15 05:57:25;;;;;;;;;;;5.10;99.90;;;;;;5035521;28;20291;-81
2022/03/15 05:59:50;;;;;;;;;;;5.20;99.90;;;;;;5035882;28;19917;-80
2022/03/15 06:02:16;;;;;;;;;;;5.20;99.90;;;;;;5041154;28;19968;-80
2022/03/15 06:04:42;;;;;;;;;;;5.20;99.90;;;;;;5043521;28;19924;-80
2022/03/15 06:07:07;;;;;;;;;;;5.30;99.90;;;;;;5043926;28;19921;-80
2022/03/15 06:09:33;;;;;;;;;;;5.30;99.90;;;;;;5042824;28;20559;-80
2022/03/15 06:11:58;;;;;;;;;;;5.30;99.90;;;;;;5042955;28;19924;-79
2022/03/15 06:14:24;;;;;;;;;;;5.30;99.90;;;;;;5046617;28;19971;-79
2022/03/15 06:16:50;;;;;;;;;;;5.40;99.90;;;;;;5044517;28;19921;-79
2022/03/15 06:19:15;;;;;;;;;;;5.40;99.90;;;;;;5042147;28;19920;-79
2022/03/15 06:21:41;;;;;;;;;;;5.40;99.90;;;;;;5054667;28;20255;-79
2022/03/15 06:24:07;;;;;;;;;;;5.50;99.90;;;;;;5053393;28;20364;-80
2022/03/15 06:26:33;;;;;;;;;;;5.50;99.90;;;;;;5087356;28;20011;-80
2022/03/15 06:28:59;;;;;;;;;;;5.70;99.90;;;;;;5054528;28;19931;-81
2022/03/15 06:31:24;;;;;;;;;;;5.70;99.90;;;;;;5054711;28;19928;-80
2022/03/15 06:33:50;;;;;;;;;;;5.70;99.90;;;;;;5054717;28;19921;-80
2022/03/15 06:36:18;;;;;;;;;;;5.70;99.90;;;;;;5052657;28;20367;-77
2022/03/15 06:38:44;;;;;;;;;;;5.80;99.90;;;;;;5040742;28;19967;-82
2022/03/15 06:41:11;;;;;;;;;;;5.80;99.90;;;;;;5053007;28;19921;-80
2022/03/15 06:43:39;;;;;;;;;;;5.80;99.90;;;;;;5054409;28;20002;-79
2022/03/15 06:46:05;;;;;;;;;;;5.90;99.90;;;;;;5052641;28;19928;-78
2022/03/15 06:48:30;;;;;;;;;;;6.00;99.90;;;;;;5054563;28;19921;-76
2022/03/15 06:50:57;;;;;;;;;;;6.00;99.90;;;;;;5052857;28;19924;-80
2022/03/15 06:53:26;;;;;;;;;;;6.00;99.90;;;;;;5036468;28;20300;-81
2022/03/15 06:55:53;;;;;;;;;;;6.00;99.90;;;;;;5040305;28;19925;-81
2022/03/15 06:58:18;;;;;;;;;;;6.10;99.90;;;;;;5033455;28;19983;-81
2022/03/15 07:00:44;;;;;;;;;;;6.20;99.90;;;;;;5034686;28;19975;-75
2022/03/15 07:03:11;;;;;;;;;;;6.20;99.90;;;;;;5045287;28;20376;-79
2022/03/15 07:05:40;;;;;;;;;;;6.20;99.90;;;;;;5052738;28;19920;-80
2022/03/15 07:08:06;;;;;;;;;;;6.20;99.90;;;;;;5054258;28;19928;-78
2022/03/15 07:10:32;;;;;;;;;;;6.20;99.90;;;;;;5052193;28;19921;-74
2022/03/15 07:12:58;;;;;;;;;;;6.30;99.90;;;;;;5053985;28;19925;-79
2022/03/15 07:15:23;;;;;;;;;;;5.00;99.90;;;;;;5054179;28;19925;-77
2022/03/15 07:17:50;;;;;;;;;;;6.50;99.90;;;;;;5052418;28;20019;-77
2022/03/15 07:20:16;;;;;;;;;;;6.50;99.90;;;;;;5053944;28;20379;-73
2022/03/15 07:22:42;;;;;;;;;;;6.60;99.90;;;;;;5053033;28;19928;-73
2022/03/15 07:25:08;;;;;;;;;;;6.70;99.90;;;;;;5048129;28;19921;-83
2022/03/15 07:27:33;;;;;;;;;;;6.70;99.90;;;;;;5032614;28;19925;-78
2022/03/15 07:29:59;;;;;;;;;;;6.90;99.90;;;;;;5032549;28;19924;-84
2022/03/15 07:32:24;;;;;;;;;;;7.00;99.90;;;;;;5033233;28;19921;-85
2022/03/15 07:34:50;;;;;;;;;;;7.20;99.90;;;;;;5032758;28;19971;-84
2022/03/15 07:37:15;;;;;;;;;;;7.40;99.90;;;;;;5032156;28;19921;-82
2022/03/15 07:39:41;;;;;;;;;;;7.50;99.90;;;;;;5034454;28;19966;-82
2022/03/15 07:42:06;;;;;;;;;;;7.60;99.90;;;;;;5041796;28;19943;-82
2022/03/15 07:44:32;;;;;;;;;;;7.80;99.90;;;;;;5041447;28;19921;-83
2022/03/15 07:46:57;;;;;;;;;;;7.90;99.90;;;;;;5036254;28;19928;-77
2022/03/15 07:49:23;;;;;;;;;;;8.00;99.90;;;;;;5035701;28;19929;-81
2022/03/15 07:51:49;;;;;;;;;;;8.10;99.90;;;;;;5038210;28;20343;-80
2022/03/15 07:54:15;;;;;;;;;;;8.30;99.90;;;;;;5047412;28;19921;-82
2022/03/15 07:56:41;;;;;;;;;;;8.50;99.90;;;;;;5037580;28;19960;-82
2022/03/15 07:59:06;;;;;;;;;;;8.60;99.90;;;;;;5041691;28;19967;-80
2022/03/15 08:01:32;;;;;;;;;;;8.80;99.90;;;;;;5048455;28;20360;-82
2022/03/15 08:03:58;;;;;;;;;;;8.90;99.90;;;;;;5035962;28;19997;-79
2022/03/15 08:06:23;;;;;;;;;;;8.80;99.90;;;;;;5037049;28;19929;-80
2022/03/15 08:08:49;;;;;;;;;;;8.80;99.90;;;;;;5049281;28;19925;-81
2022/03/15 08:11:15;;;;;;;;;;;8.90;99.90;;;;;;5032044;28;19921;-81
2022/03/15 08:13:43;;;;;;;;;;;8.90;99.90;;;;;;5042853;28;19927;-79
2022/03/15 08:16:09;;;;;;;;;;;8.90;99.90;;;;;;5045060;28;19951;-75
2022/03/15 08:18:34;;;;;;;;;;;8.90;99.90;;;;;;5041224;28;19921;-79
2022/03/15 08:21:00;;;;;;;;;;;8.90;99.90;;;;;;5051300;28;20299;-79
2022/03/15 08:23:27;;;;;;;;;;;8.90;99.90;;;;;;5051687;28;19927;-78
2022/03/15 08:25:55;;;;;;;;;;;9.00;99.90;;;;;;5051755;28;19967;-77
2022/03/15 08:28:24;;;;;;;;;;;9.00;99.90;;;;;;5051185;28;20291;-86
2022/03/15 08:30:50;;;;;;;;;;;9.10;99.90;;;;;;5042648;28;19921;-81
2022/03/15 08:33:16;;;;;;;;;;;9.20;99.90;;;;;;5032976;28;20008;-86
2022/03/15 08:35:42;;;;;;;;;;;9.30;99.90;;;;;;5032481;28;20011;-78
2022/03/15 08:38:08;;;;;;;;;;;9.50;99.90;;;;;;5032471;28;19921;-77
2022/03/15 08:40:34;;;;;;;;;;;9.80;99.90;;;;;;5032601;28;19921;-76
2022/03/15 08:43:00;;;;;;;;;;;10.10;99.90;;;;;;5032694;28;19927;-81
2022/03/15 08:45:26;;;;;;;;;;;10.50;99.90;;;;;;5031073;28;19925;-81
2022/03/15 08:47:52;;;;;;;;;;;10.90;99.90;;;;;;5032842;28;19921;-87
2022/03/15 08:50:19;;;;;;;;;;;11.30;99.90;;;;;;5032099;28;19921;-87
2022/03/15 08:52:45;;;;;;;;;;;11.60;99.90;;;;;;5033381;28;20427;-83
2022/03/15 08:55:10;;;;;;;;;;;11.90;99.90;;;;;;5031032;28;19921;-83
2022/03/15 08:57:37;;;;;;;;;;;12.30;99.90;;;;;;5031867;28;20372;-83
2022/03/15 09:00:07;;;;;;;;;;;12.70;99.90;;;;;;5030962;28;19927;-83
2022/03/15 09:02:34;;;;;;;;;;;12.90;99.90;;;;;;5038886;28;20284;-82
2022/03/15 09:04:59;;;;;;;;;;;13.30;99.90;;;;;;5051472;28;20485;-80
2022/03/15 09:07:30;;;;;;;;;;;13.50;99.90;;;;;;5040716;28;20360;-85
2022/03/15 09:09:55;;;;;;;;;;;13.60;99.90;;;;;;5036413;28;19943;-84
2022/03/15 09:12:21;;;;;;;;;;;13.80;99.90;;;;;;5051029;28;20360;-84
2022/03/15 09:14:47;;;;;;;;;;;13.70;99.90;;;;;;5052475;28;19920;-85
2022/03/15 09:17:13;;;;;;;;;;;13.90;99.90;;;;;;5041306;28;19921;-82
2022/03/15 09:19:40;;;;;;;;;;;14.00;99.90;;;;;;5041259;28;19983;-85
2022/03/15 09:22:07;;;;;;;;;;;14.00;99.90;;;;;;5032716;28;19928;-83
2022/03/15 09:24:34;;;;;;;;;;;13.80;99.90;;;;;;5031576;28;19921;-85
2022/03/15 09:26:59;;;;;;;;;;;13.60;99.90;;;;;;5034468;28;19924;-84
2022/03/15 09:29:25;;;;;;;;;;;13.40;99.90;;;;;;5035355;28;19971;-84
2022/03/15 09:31:50;;;;;;;;;;;13.20;99.90;;;;;;5043787;28;19921;-86
2022/03/15 09:34:17;;;;;;;;;;;12.90;99.90;;;;;;5035809;28;19921;-85
2022/03/15 09:36:44;;;;;;;;;;;12.70;99.90;;;;;;5035988;28;19928;-84
2022/03/15 09:39:10;;;;;;;;;;;12.60;99.90;;;;;;5036390;28;19921;-81
2022/03/15 09:41:39;;;;;;;;;;;12.70;99.90;;;;;;5035695;28;19927;-81
2022/03/15 09:44:06;;;;;;;;;;;12.70;99.90;;;;;;5035145;28;19920;-81
2022/03/15 09:46:33;;;;;;;;;;;12.70;99.90;;;;;;5055074;28;19991;-84
2022/03/15 09:48:59;;;;;;;;;;;12.60;99.90;;;;;;5054093;28;19920;-85
2022/03/15 09:51:27;;;;;;;;;;;12.50;99.90;;;;;;5035665;28;20364;-84
2022/03/15 09:53:54;;;;;;;;;;;12.40;99.90;;;;;;5044308;28;19974;-85
2022/03/15 09:56:20;;;;;;;;;;;12.50;99.90;;;;;;5053521;28;20331;-84
2022/03/15 09:58:45;;;;;;;;;;;12.10;99.90;;;;;;5055160;28;19924;-83
2022/03/15 10:01:19;;;;;;;;;;;13.20;99.90;;;;;;5053147;28;20032;-84
2022/03/15 10:03:47;;;;;;;;;;;12.40;99.90;;;;;;5036552;28;19921;-83
2022/03/15 10:06:16;;;;;;;;;;;12.00;99.90;;;;;;5035141;28;20002;-84
2022/03/15 10:08:42;;;;;;;;;;;12.00;99.90;;;;;;5035171;28;20318;-85
2022/03/15 10:11:09;;;;;;;;;;;11.90;99.90;;;;;;5034504;28;20004;-87
2022/03/15 10:13:35;;;;;;;;;;;11.80;99.90;;;;;;5035412;28;19921;-84
2022/03/15 10:16:03;;;;;;;;;;;11.80;99.90;;;;;;5035301;28;20395;-84
2022/03/15 10:18:32;;;;;;;;;;;11.80;99.90;;;;;;5035518;28;19968;-78
2022/03/15 10:20:58;;;;;;;;;;;11.80;99.90;;;;;;5034691;28;19920;-77
2022/03/15 10:23:31;;;;;;;;;;;11.70;99.90;;;;;;5034408;28;20373;-82
2022/03/15 10:25:59;;;;;;;;;;;11.50;99.90;;;;;;5047293;28;20012;-78
2022/03/15 10:28:25;;;;;;;;;;;11.50;99.90;;;;;;5052069;28;20350;-79
2022/03/15 10:30:51;;;;;;;;;;;11.60;99.90;;;;;;5034173;28;20362;-78
2022/03/15 10:33:17;;;;;;;;;;;11.50;99.90;;;;;;5051688;28;19981;-81
2022/03/15 10:35:45;;;;;;;;;;;11.40;99.90;;;;;;5034362;28;19921;-81
2022/03/15 10:38:10;;;;;;;;;;;11.30;99.90;;;;;;5033755;28;19921;-80
2022/03/15 10:40:41;;;;;;;;;;;11.20;99.90;;;;;;5035892;28;19924;-78
2022/03/15 10:43:20;;;;;;;;;;;11.20;99.90;;;;;;5034185;28;19972;-82
2022/03/15 10:45:46;;;;;;;;;;;11.20;99.90;;;;;;5034482;28;19971;-84
2022/03/15 10:48:15;;;;;;;;;;;11.10;99.90;;;;;;5045841;28;19921;-82
2022/03/15 10:50:49;;;;;;;;;;;11.10;99.90;;;;;;5036227;28;19921;-86
2022/03/15 10:53:15;;;;;;;;;;;11.00;99.90;;;;;;5045713;28;20455;-78
2022/03/15 10:55:40;;;;;;;;;;;10.90;99.90;;;;;;5040976;28;20077;-79
2022/03/15 10:58:06;;;;;;;;;;;10.90;99.90;;;;;;5044762;28;19974;-79
2022/03/15 11:00:37;;;;;;;;;;;10.80;99.90;;;;;;5054536;28;20287;-82
2022/03/15 11:03:05;;;;;;;;;;;10.80;99.90;;;;;;5046765;28;19921;-83
2022/03/15 11:05:33;;;;;;;;;;;10.80;99.90;;;;;;5044359;28;19943;-84
2022/03/15 11:08:05;;;;;;;;;;;11.00;99.90;;;;;;5045053;28;19957;-82
2022/03/15 11:10:31;;;;;;;;;;;11.00;99.90;;;;;;5051610;28;20613;-84
2022/03/15 11:12:58;;;;;;;;;;;11.00;99.90;;;;;;5049309;28;20019;-86
2022/03/15 11:15:28;;;;;;;;;;;10.90;99.90;;;;;;5047975;28;20298;-85
2022/03/15 11:17:56;;;;;;;;;;;10.70;99.90;;;;;;5040807;28;19969;-84
2022/03/15 11:20:22;;;;;;;;;;;10.70;99.90;;;;;;5032854;28;19920;-79
2022/03/15 11:22:48;;;;;;;;;;;10.60;99.90;;;;;;5041809;28;20393;-83
2022/03/15 11:25:15;;;;;;;;;;;10.50;99.90;;;;;;5043228;28;19956;-84
2022/03/15 11:29:05;;;;;;;28.20;16.30;;;10.40;99.90;;;;;;5142616;27;1230084;-82
2022/03/15 11:31:32;;;;;;;29.95;17.50;;;10.50;99.90;;;;;;5147853;27;20069;-75
2022/03/15 11:33:59;;;;;;;32.42;18.20;;;10.50;99.90;;;;;;5167028;27;20086;-85
2022/03/15 11:36:25;;;;;;;34.72;17.05;;;10.50;99.90;;;;;;5160126;27;20119;-79
2022/03/15 11:38:52;;;;;;;;;;;10.40;99.90;;;;;;5172351;27;20482;-81
2022/03/15 11:41:18;;;;;;;25.27;15.65;;;10.50;99.90;;;;;;5162442;27;19980;-81
2022/03/15 11:44:16;;;;;;;26.65;16.05;;;10.50;99.90;;;;;;5169905;27;20577;-81
2022/03/15 11:46:52;;;;;;;29.35;16.90;;;10.40;99.90;;;;;;5139899;27;20047;-82
2022/03/15 11:49:37;;;;;;;28.33;17.50;;;10.40;99.90;;;;;;5142006;27;20043;-79
2022/03/15 11:52:26;;;;;;;31.70;17.58;;;10.30;99.90;;;;;;5157694;27;20051;-79
2022/03/15 11:55:16;;;;;;;25.60;15.85;;;10.40;99.90;;;;;;5150902;27;20138;-84
2022/03/15 11:58:03;;;;;;;28.35;16.60;;;10.40;99.90;;;;;;5162687;27;20039;-82
2022/03/15 12:00:42;;;;;;;26.27;16.33;;;10.40;99.90;;;;;;5159684;27;20070;-78
2022/03/15 12:03:08;;;;;;;25.38;15.95;;;10.50;99.90;;;;;;5137887;27;20079;-79
2022/03/15 12:05:45;;;;;;;24.75;16.35;;;10.50;99.90;;;;;;5156270;27;20509;-79
2022/03/15 12:08:35;;;;;;;28.08;16.17;;;10.60;99.90;;;;;;5133852;27;20053;-79
2022/03/15 12:11:05;;;;;;;27.40;15.85;;;10.70;99.90;;;;;;5159747;27;20517;-79
2022/03/15 12:13:41;;;;;;;24.95;15.40;;;10.80;99.90;;;;;;5153885;27;20164;-75
2022/03/15 12:16:15;;;;;;;;;;;10.80;99.90;;;;;;5134886;27;20039;-78
2022/03/15 12:18:46;;;;;;;23.25;13.45;;;10.90;99.90;;;;;;5162350;27;19964;-79
2022/03/15 12:21:12;;;;;;;22.90;12.55;;;10.90;99.90;;;;;;5139401;27;20047;-76
2022/03/15 12:23:47;;;;;;;22.77;13.25;;;10.90;99.90;;;;;;5171159;27;20496;-77
2022/03/15 12:26:26;;;;;;;20.75;12.93;;;11.00;99.90;;;;;;5136726;27;20043;-76
2022/03/15 12:29:08;;;;;;;16.45;10.60;;;11.10;99.90;;;;;;5149661;27;20130;-75
2022/03/15 12:31:45;;;;;;;18.52;11.23;;;11.10;99.90;;;;;;5138870;27;20042;-78
2022/03/15 12:34:11;;;;;;;;;;;11.20;99.90;;;;;;5159191;27;20053;-78
2022/03/15 12:36:39;;;;;;;16.27;9.40;;;11.40;99.90;;;;;;5169839;27;19919;-84
2022/03/15 12:39:14;;;;;;;14.02;8.07;;;11.60;99.90;;;;;;5146213;27;20050;-81
2022/03/15 12:41:40;;;;;;;11.48;7.75;;;11.80;99.90;;;;;;5138467;27;20042;-79
2022/03/15 12:44:07;;;;;;;;;;;12.10;99.90;;;;;;5157549;27;20546;-81
2022/03/15 12:46:33;;;;;;;13.40;7.55;;;12.20;99.90;;;;;;5156544;27;19918;-84
2022/03/15 12:49:17;;;;;;;11.15;7.57;;;12.40;99.90;;;;;;5138007;27;20038;-78
2022/03/15 12:51:45;;;;;;;13.13;7.30;;;12.50;99.90;;;;;;5157007;27;20043;-80
2022/03/15 12:54:12;;;;;;;12.05;6.55;;;12.40;99.90;;;;;;5152549;27;20078;-79
2022/03/15 12:56:42;;;;;;;9.57;6.22;;;12.50;99.90;;;;;;5148259;27;20039;-81
2022/03/15 12:59:20;;;;;;;8.98;5.85;;;12.90;99.90;;;;;;5113948;27;20176;-81
2022/03/15 13:01:47;;;;;;;10.93;5.20;;;12.50;99.90;;;;;;5114068;27;20051;-77
2022/03/15 13:04:14;;;;;;;8.48;5.18;;;12.40;99.90;;;;;;5124510;27;20047;-81
2022/03/15 13:06:45;;;;;;;7.60;5.07;;;12.50;99.90;;;;;;5148689;27;20047;-81
2022/03/15 13:09:24;;;;;;;7.90;4.70;;;12.40;99.90;;;;;;5139000;27;20089;-82
2022/03/15 13:11:52;;;;;;;9.45;5.43;;;12.40;99.90;;;;;;5116115;27;20103;-80
2022/03/15 13:14:26;;;;;;;9.20;5.32;;;12.30;99.90;;;;;;5142089;27;20130;-80
2022/03/15 13:16:52;;;;;;;10.15;5.57;;;12.80;99.90;;;;;;5142723;27;20055;-85
2022/03/15 13:19:26;;;;;;;8.93;5.18;;;13.00;99.90;;;;;;5131638;27;20043;-81
2022/03/15 13:21:52;;;;;;;8.73;4.72;;;12.30;99.90;;;;;;5131370;27;20122;-81
2022/03/15 13:24:23;;;;;;;10.15;4.80;;;12.30;99.90;;;;;;5130715;27;20486;-81
2022/03/15 13:26:56;;;;;;;7.28;4.70;;;12.20;99.90;;;;;;5115899;27;20890;-81
2022/03/15 13:29:26;;;;;;;9.50;5.05;;;12.30;99.90;;;;;;5149212;27;20063;-81
2022/03/15 13:31:52;;;;;;;12.50;5.28;;;12.20;99.90;;;;;;5128851;27;20103;-81
2022/03/15 13:34:27;;;;;;;9.65;5.22;;;12.20;99.90;;;;;;5139669;27;20123;-80
2022/03/15 13:36:53;;;;;;;10.65;6.15;;;12.10;99.90;;;;;;5138142;27;20118;-80
2022/03/15 13:39:23;;;;;;;9.55;6.63;;;12.10;99.90;;;;;;5150969;27;20084;-85
2022/03/15 13:41:52;;;;;;;9.35;5.95;;;12.10;99.90;;;;;;5151896;27;20042;-87
2022/03/15 13:44:24;;;;;;;10.05;7.03;;;12.10;99.90;;;;;;5132851;27;20062;-81
2022/03/15 13:47:03;;;;;;;13.48;6.63;;;12.10;99.90;;;;;;5150373;27;20397;-79
2022/03/15 13:49:29;;;;;;;13.07;7.32;;;12.00;99.90;;;;;;5122431;27;20047;-85
2022/03/15 13:52:08;;;;;;;12.32;6.72;;;12.00;99.90;;;;;;5129899;27;20495;-82
2022/03/15 13:54:59;;;;;;;9.48;6.72;;;12.00;99.90;;;;;;5132717;27;20043;-84
2022/03/15 13:57:34;;;;;;;9.32;6.38;;;11.90;99.90;;;;;;5111817;27;20055;-84
2022/03/15 14:00:07;;;;;;;8.85;5.93;;;11.90;99.90;;;;;;5135773;27;20043;-84
2022/03/15 14:02:36;;;;;;;11.15;6.95;;;11.90;99.90;;;;;;5150998;27;20039;-86
2022/03/15 14:05:04;;;;;;;15.02;11.68;;;11.80;99.90;;;;;;5151895;27;20038;-87
2022/03/15 14:07:30;;;;;;;16.33;9.50;;;11.80;99.90;;;;;;5143731;27;20383;-87